Time;durP1;ratioP1;P1;durP2;ratioP2;P2;SDS_P1;SDS_P2;PMS_P1;PMS_P2;Temp;Humidity;BMP_temperature;BMP_pressure;BME280_temperature;BME280_humidity;BME280_pressure;Samples;Min_cycle;Max_cycle;Signal;HPM_P1;HPM_P2
2022/06/24 00:00:13;;;;;;;4.33;3.93;;;21.90;78.70;;;;;;5088035;28;20477;-72
2022/06/24 00:02:47;;;;;;;4.03;3.63;;;21.80;78.80;;;;;;5096327;27;20708;-72
2022/06/24 00:05:14;;;;;;;4.27;3.90;;;21.80;79.30;;;;;;5084962;28;20543;-72
2022/06/24 00:07:45;;;;;;;3.97;3.67;;;21.80;79.30;;;;;;5085543;28;20703;-72
2022/06/24 00:10:16;;;;;;;4.67;4.27;;;21.70;79.60;;;;;;5086218;28;20455;-71
2022/06/24 00:12:45;;;;;;;5.47;4.50;;;21.70;79.80;;;;;;5087314;28;20453;-70
2022/06/24 00:15:15;;;;;;;5.40;3.90;;;21.70;80.10;;;;;;5086990;28;20456;-70
2022/06/24 00:17:42;;;;;;;5.70;4.63;;;21.70;80.40;;;;;;5085589;28;20680;-71
2022/06/24 00:20:16;;;;;;;3.87;3.57;;;21.70;80.70;;;;;;5082229;28;20561;-71
2022/06/24 00:22:44;;;;;;;4.13;3.80;;;21.60;81.00;;;;;;5083612;28;20495;-70
2022/06/24 00:25:14;;;;;;;5.57;4.80;;;21.60;81.60;;;;;;5085605;28;20571;-69
2022/06/24 00:27:44;;;;;;;6.73;4.57;;;21.50;81.80;;;;;;5087167;28;20724;-72
2022/06/24 00:30:13;;;;;;;7.37;4.73;;;21.50;82.30;;;;;;5086290;28;20484;-69
2022/06/24 00:32:41;;;;;;;3.80;3.40;;;21.40;82.50;;;;;;5087943;28;20505;-71
2022/06/24 00:35:19;;;;;;;6.17;4.40;;;21.30;83.10;;;;;;5090771;28;20519;-69
2022/06/24 00:37:47;;;;;;;4.40;4.00;;;21.30;83.40;;;;;;5087142;28;20432;-71
2022/06/24 00:40:25;;;;;;;5.00;4.50;;;21.30;83.70;;;;;;5086070;28;20506;-72
2022/06/24 00:42:54;;;;;;;4.70;4.30;;;21.30;84.00;;;;;;5081532;28;20616;-70
2022/06/24 00:45:35;;;;;;;6.50;5.80;;;21.20;84.30;;;;;;5086746;28;20429;-71
2022/06/24 00:48:09;;;;;;;5.00;4.50;;;21.20;84.60;;;;;;5082808;28;20724;-70
2022/06/24 00:50:40;;;;;;;5.00;4.10;;;21.20;85.00;;;;;;5084819;28;20539;-70
2022/06/24 00:53:07;;;;;;;7.53;5.10;;;21.10;85.10;;;;;;5085559;28;20507;-71
2022/06/24 00:55:38;;;;;;;4.50;4.20;;;21.20;85.50;;;;;;5079147;28;20444;-70
2022/06/24 00:58:11;;;;;;;4.87;4.30;;;21.20;85.70;;;;;;5085116;28;20436;-71
2022/06/24 01:00:41;;;;;;;4.33;4.03;;;21.10;85.60;;;;;;5084254;28;20475;-70
2022/06/24 01:03:08;;;;;;;6.00;4.20;;;21.10;85.80;;;;;;5084272;28;20451;-70
2022/06/24 01:05:35;;;;;;;5.40;4.90;;;21.10;85.80;;;;;;5085209;28;20429;-71
2022/06/24 01:08:07;;;;;;;4.90;4.30;;;21.10;86.00;;;;;;5083899;28;20647;-71
2022/06/24 01:10:35;;;;;;;4.73;4.33;;;21.10;85.90;;;;;;5077277;28;20494;-71
2022/06/24 01:13:02;;;;;;;5.57;4.50;;;21.10;86.20;;;;;;5083899;28;20452;-70
2022/06/24 01:15:30;;;;;;;5.23;4.70;;;21.10;86.30;;;;;;5085236;28;20425;-71
2022/06/24 01:17:57;;;;;;;5.17;4.70;;;21.10;86.50;;;;;;5084242;28;20573;-70
2022/06/24 01:20:24;;;;;;;5.50;4.80;;;21.00;86.50;;;;;;5083408;28;20496;-70
2022/06/24 01:22:53;;;;;;;5.07;4.67;;;21.00;86.80;;;;;;5084996;28;20454;-71
2022/06/24 01:25:19;;;;;;;4.87;4.47;;;21.00;87.00;;;;;;5084514;28;20427;-72
2022/06/24 01:27:46;;;;;;;4.90;4.50;;;21.00;87.00;;;;;;5084509;28;20787;-71
2022/06/24 01:30:14;;;;;;;4.33;4.03;;;20.90;87.30;;;;;;5083195;28;20476;-71
2022/06/24 01:32:41;;;;;;;7.33;4.70;;;20.90;87.60;;;;;;5085617;28;20479;-71
2022/06/24 01:35:08;;;;;;;5.03;4.53;;;20.90;88.00;;;;;;5078512;28;20471;-71
2022/06/24 01:37:35;;;;;;;6.27;5.00;;;20.80;88.40;;;;;;5076182;28;20657;-71
2022/06/24 01:40:04;;;;;;;5.23;4.83;;;20.80;88.60;;;;;;5079891;28;20592;-72
2022/06/24 01:42:31;;;;;;;4.93;4.53;;;20.70;88.90;;;;;;5081152;28;20493;-71
2022/06/24 01:44:58;;;;;;;4.83;4.33;;;20.70;89.20;;;;;;5085693;28;20452;-71
2022/06/24 01:47:25;;;;;;;4.50;4.20;;;20.60;89.50;;;;;;5085754;28;20539;-70
2022/06/24 01:49:52;;;;;;;5.13;4.73;;;20.60;89.70;;;;;;5084520;28;20535;-71
2022/06/24 01:52:19;;;;;;;5.30;4.90;;;20.60;90.00;;;;;;5084272;28;20436;-71
2022/06/24 01:54:46;;;;;;;4.70;4.30;;;20.50;90.00;;;;;;5084991;28;20439;-70
2022/06/24 01:57:15;;;;;;;5.27;4.77;;;20.50;90.20;;;;;;5084494;28;20444;-71
2022/06/24 01:59:42;;;;;;;5.83;5.33;;;20.50;90.20;;;;;;5084922;28;20703;-71
2022/06/24 02:02:09;;;;;;;7.40;4.80;;;20.50;90.40;;;;;;5081934;28;20435;-71
2022/06/24 02:04:35;;;;;;;5.33;4.83;;;20.50;90.40;;;;;;5079578;28;20438;-71
2022/06/24 02:07:03;;;;;;;6.73;5.87;;;20.40;90.40;;;;;;5084316;28;20486;-71
2022/06/24 02:09:29;;;;;;;5.60;5.10;;;20.40;90.50;;;;;;5077881;28;20448;-71
2022/06/24 02:14:43;;;;;;;4.80;4.37;;;20.40;90.60;;;;;;5080212;28;20563;-70
2022/06/24 02:17:10;;;;;;;5.50;4.70;;;20.30;90.60;;;;;;5085433;28;20431;-70
2022/06/24 02:19:38;;;;;;;6.33;5.03;;;20.30;90.70;;;;;;5082888;28;20487;-70
2022/06/24 02:22:05;;;;;;;5.53;5.03;;;20.30;90.70;;;;;;5074919;28;20448;-70
2022/06/24 02:24:32;;;;;;;5.60;5.10;;;20.40;90.90;;;;;;5084023;28;20505;-70
2022/06/24 02:26:59;;;;;;;5.43;4.93;;;20.30;90.90;;;;;;5081405;28;20452;-70
2022/06/24 02:29:26;;;;;;;6.17;4.83;;;20.30;91.00;;;;;;5078043;28;20480;-70
2022/06/24 02:31:54;;;;;;;6.20;4.47;;;20.30;91.00;;;;;;5081599;28;20706;-71
2022/06/24 02:34:21;;;;;;;6.43;5.30;;;20.30;91.00;;;;;;5078624;28;20455;-69
2022/06/24 02:36:48;;;;;;;6.17;5.57;;;20.30;91.10;;;;;;5085129;28;20434;-71
2022/06/24 02:39:15;;;;;;;5.57;4.60;;;20.20;91.10;;;;;;5079940;28;20496;-71
2022/06/24 02:41:41;;;;;;;7.00;5.00;;;20.20;91.20;;;;;;5077448;28;20463;-70
2022/06/24 02:44:08;;;;;;;6.20;4.90;;;20.20;91.50;;;;;;5089207;28;20451;-70
2022/06/24 02:46:36;;;;;;;5.20;4.70;;;20.20;91.20;;;;;;5087482;28;20435;-70
2022/06/24 02:49:05;;;;;;;5.37;4.50;;;20.20;91.20;;;;;;5099770;28;20471;-69
2022/06/24 02:51:32;;;;;;;5.60;5.10;;;20.20;91.10;;;;;;5087112;28;20498;-70
2022/06/24 02:53:59;;;;;;;5.10;4.60;;;20.30;91.20;;;;;;5090167;28;20479;-70
2022/06/24 02:56:26;;;;;;;5.17;4.77;;;20.20;91.20;;;;;;5092938;28;20447;-69
2022/06/24 02:58:53;;;;;;;4.77;4.37;;;20.20;91.30;;;;;;5089666;28;20470;-69
2022/06/24 03:01:20;;;;;;;4.90;4.40;;;20.20;91.30;;;;;;5083204;28;20437;-69
2022/06/24 03:03:47;;;;;;;7.30;4.20;;;20.20;91.40;;;;;;5086509;28;20438;-70
2022/06/24 03:06:15;;;;;;;6.00;5.40;;;20.20;91.40;;;;;;5082791;28;20423;-71
2022/06/24 03:08:43;;;;;;;4.67;4.27;;;20.20;91.40;;;;;;5082668;28;20471;-70
2022/06/24 03:11:11;;;;;;;7.37;4.90;;;20.20;91.40;;;;;;5084736;28;20457;-70
2022/06/24 03:13:38;;;;;;;5.87;4.50;;;20.20;91.50;;;;;;5083829;28;20520;-70
2022/06/24 03:16:05;;;;;;;4.93;3.90;;;20.20;91.40;;;;;;5079468;28;20466;-70
2022/06/24 03:18:32;;;;;;;5.10;4.63;;;20.30;91.40;;;;;;5088316;28;20434;-70
2022/06/24 03:20:59;;;;;;;4.57;3.80;;;20.30;91.40;;;;;;5082983;28;20635;-70
2022/06/24 03:23:28;;;;;;;5.80;4.93;;;20.40;91.30;;;;;;5086060;28;20440;-70
2022/06/24 03:25:55;;;;;;;5.03;4.53;;;20.50;91.10;;;;;;5088034;28;20444;-70
2022/06/24 03:28:21;;;;;;;4.70;4.20;;;20.50;91.10;;;;;;5086911;28;20491;-71
2022/06/24 03:30:49;;;;;;;6.23;4.40;;;20.50;91.00;;;;;;5082115;28;20449;-71
2022/06/24 03:33:15;;;;;;;5.40;5.00;;;20.60;91.00;;;;;;5087205;28;20451;-71
2022/06/24 03:35:43;;;;;;;5.27;4.77;;;20.60;91.00;;;;;;5086180;28;20437;-70
2022/06/24 03:38:10;;;;;;;4.90;4.30;;;20.70;91.00;;;;;;5092884;28;20667;-70
2022/06/24 03:40:38;;;;;;;6.43;4.57;;;20.70;91.00;;;;;;5092138;28;20711;-70
2022/06/24 03:43:05;;;;;;;7.20;4.37;;;20.70;90.90;;;;;;5088068;28;20428;-70
2022/06/24 03:45:32;;;;;;;6.03;4.63;;;20.80;90.80;;;;;;5084256;28;20556;-70
2022/06/24 03:47:59;;;;;;;5.33;4.50;;;20.90;90.60;;;;;;5082469;28;20502;-71
2022/06/24 03:50:26;;;;;;;7.80;5.10;;;21.00;90.50;;;;;;5085327;28;20480;-70
2022/06/24 03:52:53;;;;;;;5.03;4.53;;;21.20;90.50;;;;;;5087188;28;20456;-69
2022/06/24 03:55:20;;;;;;;4.70;4.30;;;21.30;90.30;;;;;;5087021;28;20444;-70
2022/06/24 03:57:48;;;;;;;4.80;4.37;;;21.30;90.20;;;;;;5084017;28;20461;-70
2022/06/24 04:00:16;;;;;;;5.27;4.53;;;21.50;90.00;;;;;;5086700;28;20507;-71
2022/06/24 04:02:44;;;;;;;4.63;4.20;;;21.60;89.70;;;;;;5086175;28;20429;-71
2022/06/24 04:05:11;;;;;;;4.30;4.00;;;21.70;89.30;;;;;;5086743;28;20443;-70
2022/06/24 04:07:38;;;;;;;4.90;4.50;;;21.70;89.00;;;;;;5082773;28;20437;-71
2022/06/24 04:10:06;;;;;;;5.53;3.90;;;21.80;89.00;;;;;;5087470;28;20455;-69
2022/06/24 04:12:33;;;;;;;5.23;4.63;;;21.80;88.90;;;;;;5089868;28;20692;-69
2022/06/24 04:15:18;;;;;;;5.07;4.57;;;21.90;88.90;;;;;;5088156;28;20592;-72
2022/06/24 04:17:46;;;;;;;5.33;4.70;;;21.90;88.70;;;;;;5082556;28;20515;-69
2022/06/24 04:20:14;;;;;;;6.50;4.83;;;21.80;88.90;;;;;;5093739;28;20481;-70
2022/06/24 04:22:42;;;;;;;4.97;4.10;;;21.80;89.10;;;;;;5087386;28;20492;-71
2022/06/24 04:25:10;;;;;;;4.83;4.40;;;22.10;88.60;;;;;;5087253;28;20437;-70
2022/06/24 04:27:38;;;;;;;5.30;4.73;;;22.60;87.50;;;;;;5086791;28;20433;-71
2022/06/24 04:30:09;;;;;;;5.33;4.80;;;22.90;86.50;;;;;;5085686;28;20453;-71
2022/06/24 04:32:36;;;;;;;3.93;3.57;;;23.10;85.80;;;;;;5086988;28;20429;-71
2022/06/24 04:35:03;;;;;;;5.53;4.73;;;23.20;85.70;;;;;;5083504;28;20540;-70
2022/06/24 04:37:30;;;;;;;7.67;4.23;;;23.30;85.10;;;;;;5086165;28;20425;-71
2022/06/24 04:39:58;;;;;;;5.93;4.70;;;23.20;85.30;;;;;;5086103;28;20453;-71
2022/06/24 04:42:25;;;;;;;7.03;4.10;;;23.10;85.70;;;;;;5086364;28;20448;-71
2022/06/24 04:44:52;;;;;;;5.93;4.40;;;23.00;86.10;;;;;;5084215;28;20441;-69
2022/06/24 04:47:20;;;;;;;5.03;4.57;;;22.80;86.50;;;;;;5087389;28;20432;-71
2022/06/24 04:49:48;;;;;;;5.20;4.60;;;22.70;87.20;;;;;;5088737;28;20472;-70
2022/06/24 04:52:15;;;;;;;8.30;4.87;;;22.70;88.60;;;;;;5088672;28;20468;-70
2022/06/24 04:54:42;;;;;;;5.83;5.23;;;22.70;87.90;;;;;;5087129;28;20457;-71
2022/06/24 04:57:10;;;;;;;4.40;4.00;;;23.30;87.40;;;;;;5088585;28;20437;-71
2022/06/24 04:59:37;;;;;;;8.90;4.40;;;24.20;85.30;;;;;;5078534;28;20453;-70
2022/06/24 05:02:04;;;;;;;9.33;4.50;;;24.30;83.80;;;;;;5085757;28;20525;-70
2022/06/24 05:04:33;;;;;;;4.90;4.13;;;24.90;83.10;;;;;;5084670;28;20494;-71
2022/06/24 05:07:00;;;;;;;4.37;3.90;;;25.70;80.40;;;;;;5085212;28;20693;-71
2022/06/24 05:09:28;;;;;;;3.97;3.67;;;26.50;77.80;;;;;;5080765;28;20534;-70
2022/06/24 05:11:55;;;;;;;5.07;3.67;;;27.20;76.20;;;;;;5085103;28;20681;-71
2022/06/24 05:14:29;;;;;;;4.40;4.10;;;27.90;73.40;;;;;;5085909;28;20677;-72
2022/06/24 05:16:57;;;;;;;4.80;4.40;;;28.40;72.40;;;;;;5086563;28;20443;-72
2022/06/24 05:19:24;;;;;;;5.20;4.70;;;28.90;70.20;;;;;;5078498;28;20568;-70
2022/06/24 05:21:52;;;;;;;5.40;4.80;;;29.00;69.20;;;;;;5093597;28;20653;-71
2022/06/24 05:24:19;;;;;;;6.00;4.53;;;29.20;68.50;;;;;;5080022;28;20666;-71
2022/06/24 05:26:46;;;;;;;4.93;4.43;;;29.70;67.70;;;;;;5085982;28;20433;-73
2022/06/24 05:29:14;;;;;;;4.90;3.97;;;29.90;66.70;;;;;;5084497;28;20476;-72
2022/06/24 05:31:41;;;;;;;4.23;3.83;;;30.10;65.80;;;;;;5080693;28;20524;-71
2022/06/24 05:34:08;;;;;;;5.30;4.80;;;30.10;64.90;;;;;;5075982;28;20438;-72
2022/06/24 05:36:35;;;;;;;4.30;3.90;;;30.40;64.50;;;;;;5082655;28;20446;-71
2022/06/24 05:39:05;;;;;;;4.73;4.03;;;30.60;63.60;;;;;;5079761;28;20468;-72
2022/06/24 05:41:32;;;;;;;5.47;4.17;;;30.70;63.20;;;;;;5075409;28;20448;-73
2022/06/24 05:44:00;;;;;;;5.70;3.67;;;30.70;63.10;;;;;;5080009;28;20421;-72
2022/06/24 05:46:27;;;;;;;5.77;3.97;;;30.70;62.90;;;;;;5085352;28;20657;-72
2022/06/24 05:48:54;;;;;;;9.03;4.10;;;30.80;62.60;;;;;;5082095;28;20480;-71
2022/06/24 05:51:21;;;;;;;6.10;4.87;;;30.70;62.50;;;;;;5076645;28;20469;-73
2022/06/24 05:56:33;;;;;;;6.97;3.93;;;30.60;62.80;;;;;;5072668;28;20498;-72
2022/06/24 05:59:00;;;;;;;8.20;5.10;;;31.20;61.50;;;;;;5083474;28;20451;-72
2022/06/24 06:01:28;;;;;;;4.93;4.40;;;31.40;61.10;;;;;;5084624;28;20515;-73
2022/06/24 06:03:55;;;;;;;6.63;4.10;;;31.60;60.10;;;;;;5084632;28;20437;-72
2022/06/24 06:06:22;;;;;;;4.97;4.50;;;31.80;59.70;;;;;;5085334;28;20442;-71
2022/06/24 06:08:50;;;;;;;4.80;4.40;;;31.80;59.00;;;;;;5084564;28;21018;-72
2022/06/24 06:11:19;;;;;;;7.53;4.00;;;31.90;58.60;;;;;;5082088;28;20480;-72
2022/06/24 06:13:50;;;;;;;5.10;4.07;;;32.10;58.40;;;;;;5083296;28;20512;-71
2022/06/24 06:16:18;;;;;;;7.43;4.70;;;32.60;57.90;;;;;;5088189;28;20421;-70
2022/06/24 06:18:47;;;;;;;4.60;4.20;;;32.60;57.60;;;;;;5084920;28;20426;-71
2022/06/24 06:21:14;;;;;;;8.23;4.63;;;32.70;56.80;;;;;;5084634;28;20462;-72
2022/06/24 06:23:42;;;;;;;3.70;3.40;;;32.40;57.00;;;;;;5091289;28;20671;-71
2022/06/24 06:26:10;;;;;;;5.50;4.13;;;31.60;57.20;;;;;;5088872;28;20460;-71
2022/06/24 06:28:37;;;;;;;10.43;4.73;;;30.60;59.00;;;;;;5084647;28;20472;-70
2022/06/24 06:31:08;;;;;;;11.80;4.70;;;30.30;60.20;;;;;;5087480;28;20708;-70
2022/06/24 06:33:35;;;;;;;6.57;4.77;;;30.60;60.60;;;;;;5080912;28;20501;-71
2022/06/24 06:36:03;;;;;;;4.87;4.47;;;31.00;59.80;;;;;;5086973;28;20460;-72
2022/06/24 06:38:31;;;;;;;5.80;5.10;;;31.90;58.90;;;;;;5079980;28;20421;-73
2022/06/24 06:40:58;;;;;;;8.97;4.27;;;32.20;58.20;;;;;;5086192;28;20461;-72
2022/06/24 06:43:25;;;;;;;4.63;4.23;;;32.10;58.50;;;;;;5085343;28;20468;-72
2022/06/24 06:45:53;;;;;;;8.33;4.53;;;31.60;59.90;;;;;;5078592;28;20433;-70
2022/06/24 06:48:22;;;;;;;4.30;3.90;;;31.00;60.50;;;;;;5081064;28;20444;-72
2022/06/24 06:50:55;;;;;;;6.93;4.40;;;30.40;62.20;;;;;;5085321;28;20472;-70
2022/06/24 06:53:22;;;;;;;8.53;4.60;;;29.80;64.00;;;;;;5087719;28;20521;-70
2022/06/24 06:55:50;;;;;;;5.17;4.67;;;29.70;64.90;;;;;;5085857;28;20501;-70
2022/06/24 06:58:18;;;;;;;7.17;4.13;;;29.50;65.50;;;;;;5090191;28;20460;-70
2022/06/24 07:00:46;;;;;;;8.60;4.70;;;30.00;66.10;;;;;;5090191;28;20457;-70
2022/06/24 07:03:14;;;;;;;4.70;4.10;;;30.70;65.10;;;;;;5091893;28;20449;-70
2022/06/24 07:05:43;;;;;;;5.73;4.97;;;31.90;63.30;;;;;;5090307;28;20456;-71
2022/06/24 07:08:11;;;;;;;4.67;4.20;;;32.60;61.50;;;;;;5088692;27;20466;-71
2022/06/24 07:10:39;;;;;;;4.80;4.40;;;33.70;61.30;;;;;;5080339;28;20508;-71
2022/06/24 07:13:06;;;;;;;6.90;4.30;;;34.50;59.40;;;;;;5090814;28;20429;-72
2022/06/24 07:15:33;;;;;;;5.23;4.60;;;35.20;58.50;;;;;;5088768;28;20653;-71
2022/06/24 07:18:00;;;;;;;6.83;4.00;;;34.60;58.70;;;;;;5091149;28;20460;-72
2022/06/24 07:20:27;;;;;;;4.97;3.97;;;34.80;58.30;;;;;;5090145;28;20528;-71
2022/06/24 07:22:56;;;;;;;4.63;3.60;;;35.30;58.50;;;;;;5089155;28;20477;-71
2022/06/24 07:25:22;;;;;;;7.30;4.07;;;34.60;58.90;;;;;;5097943;28;20440;-72
2022/06/24 07:27:59;;;;;;;5.37;4.83;;;34.90;59.70;;;;;;5097938;28;20448;-70
2022/06/24 07:30:26;;;;;;;4.30;3.90;;;34.90;59.00;;;;;;5089671;28;20490;-71
2022/06/24 07:32:55;;;;;;;6.40;4.60;;;34.70;59.60;;;;;;5087687;28;20608;-71
2022/06/24 07:35:22;;;;;;;6.47;4.10;;;34.60;60.10;;;;;;5087455;28;20546;-71
2022/06/24 07:37:57;;;;;;;9.53;4.70;;;34.40;59.90;;;;;;5088262;28;20429;-71
2022/06/24 07:40:25;;;;;;;5.23;3.77;;;35.00;60.10;;;;;;5087786;28;20452;-71
2022/06/24 07:43:01;;;;;;;5.33;3.60;;;34.80;59.80;;;;;;5088213;28;20441;-71
2022/06/24 07:45:28;;;;;;;6.27;4.93;;;35.70;58.80;;;;;;5077083;28;20425;-72
2022/06/24 07:47:56;;;;;;;9.43;5.03;;;36.30;58.10;;;;;;5082539;28;20701;-72
2022/06/24 07:50:23;;;;;;;8.37;4.80;;;36.00;57.70;;;;;;5086481;28;20585;-71
2022/06/24 07:52:50;;;;;;;4.90;4.40;;;36.60;58.00;;;;;;5080710;28;20658;-72
2022/06/24 07:58:04;;;;;;;8.07;4.97;;;37.00;58.20;;;;;;5082742;22;21572;-83
2022/06/24 08:00:32;;;;;;;5.40;4.90;;;37.00;58.30;;;;;;5068169;28;20482;-83
2022/06/24 08:02:59;;;;;;;6.53;5.40;;;37.20;58.50;;;;;;5088445;28;20922;-83
2022/06/24 08:05:26;;;;;;;6.70;5.80;;;37.50;57.80;;;;;;5082952;28;20430;-83
2022/06/24 08:07:53;;;;;;;7.97;6.00;;;37.80;57.30;;;;;;5080513;28;20507;-85
2022/06/24 08:10:22;;;;;;;6.93;6.20;;;37.90;56.90;;;;;;5083923;28;20500;-82
2022/06/24 08:12:49;;;;;;;8.33;6.93;;;37.00;57.50;;;;;;5071595;28;20461;-81
2022/06/24 08:15:16;;;;;;;9.27;6.83;;;36.90;58.60;;;;;;5070428;28;20814;-84
2022/06/24 08:17:43;;;;;;;8.60;7.80;;;36.60;58.80;;;;;;5078095;28;20472;-83
2022/06/24 08:20:11;;;;;;;8.83;8.03;;;36.70;59.70;;;;;;5078966;28;20503;-82
2022/06/24 08:22:38;;;;;;;6.90;5.93;;;36.60;60.50;;;;;;5094802;28;20492;-83
2022/06/24 08:25:05;;;;;;;8.30;7.50;;;37.50;59.70;;;;;;5087283;28;20442;-83
2022/06/24 08:27:33;;;;;;;14.23;8.23;;;37.00;59.30;;;;;;5071149;28;20516;-83
2022/06/24 08:30:03;;;;;;;8.73;6.23;;;37.30;59.60;;;;;;5073925;28;20486;-81
2022/06/24 08:32:31;;;;;;;9.03;7.80;;;37.20;59.50;;;;;;5069279;28;20468;-82
2022/06/24 08:34:58;;;;;;;8.53;7.50;;;37.20;59.80;;;;;;5074265;28;20450;-83
2022/06/24 08:37:25;;;;;;;9.30;7.23;;;37.40;59.90;;;;;;5075489;28;20905;-82
2022/06/24 08:39:51;;;;;;;11.57;8.30;;;37.20;59.30;;;;;;5081939;28;20469;-82
2022/06/24 08:42:19;;;;;;;9.63;7.67;;;37.70;59.30;;;;;;5072563;28;20527;-82
2022/06/24 08:44:59;;;;;;;12.20;7.60;;;38.10;58.70;;;;;;5079809;28;20470;-82
2022/06/24 08:47:26;;;;;;;12.10;7.27;;;37.10;58.90;;;;;;5087762;28;20445;-83
2022/06/24 08:49:55;;;;;;;10.87;7.73;;;36.50;60.30;;;;;;5079152;28;20541;-82
2022/06/24 08:52:22;;;;;;;8.40;7.20;;;36.70;60.70;;;;;;5081248;28;20477;-82
2022/06/24 08:54:51;;;;;;;9.57;7.40;;;36.40;60.50;;;;;;5081478;28;20503;-84
2022/06/24 08:57:18;;;;;;;8.97;6.97;;;36.30;60.80;;;;;;5092628;28;20439;-79
2022/06/24 08:59:45;;;;;;;16.67;6.73;;;35.60;61.00;;;;;;5094091;28;20903;-83
2022/06/24 09:02:15;;;;;;;10.60;7.10;;;35.70;62.40;;;;;;5090194;28;20468;-83
2022/06/24 09:04:44;;;;;;;8.70;7.50;;;35.90;62.80;;;;;;5076691;28;20449;-81
2022/06/24 09:07:18;;;;;;;6.87;6.13;;;36.40;61.70;;;;;;5076128;28;20461;-81
2022/06/24 09:09:58;;;;;;;8.63;6.60;;;37.20;59.40;;;;;;5087440;28;20479;-83
2022/06/24 09:12:28;;;;;;;7.80;7.00;;;37.40;58.90;;;;;;5076820;28;20545;-82
2022/06/24 09:14:54;;;;;;;9.47;8.50;;;36.60;59.80;;;;;;5090332;28;20456;-82
2022/06/24 09:17:29;;;;;;;10.90;7.27;;;35.70;62.00;;;;;;5091384;28;20440;-82
2022/06/24 09:20:08;;;;;;;9.33;7.33;;;35.50;62.90;;;;;;5080662;28;20942;-82
2022/06/24 09:22:35;;;;;;;7.03;6.17;;;35.20;62.60;;;;;;5075829;28;20459;-82
2022/06/24 09:25:04;;;;;;;10.50;6.10;;;34.80;63.30;;;;;;5080260;28;20438;-81
2022/06/24 09:27:31;;;;;;;10.17;6.60;;;33.80;64.90;;;;;;5094998;28;20957;-83
2022/06/24 09:29:58;;;;;;;8.13;7.33;;;33.50;66.80;;;;;;5087709;28;20485;-82
2022/06/24 09:32:25;;;;;;;12.10;8.20;;;33.80;66.50;;;;;;5080987;28;20902;-82
2022/06/24 09:35:01;;;;;;;11.50;8.73;;;32.50;69.50;;;;;;5075359;28;20457;-82
2022/06/24 09:37:38;;;;;;;16.00;9.03;;;31.70;71.40;;;;;;5075556;28;20482;-81
2022/06/24 09:40:20;;;;;;;9.07;6.77;;;31.20;72.50;;;;;;5080221;28;20437;-81
2022/06/24 09:42:55;;;;;;;9.40;8.50;;;30.90;73.90;;;;;;5096159;28;20475;-82
2022/06/24 09:45:22;;;;;;;9.63;7.50;;;30.80;74.40;;;;;;5080283;28;20469;-82
2022/06/24 09:47:50;;;;;;;10.20;8.37;;;30.60;75.30;;;;;;5091594;28;20447;-83
2022/06/24 09:50:19;;;;;;;8.30;7.50;;;30.50;76.20;;;;;;5085834;28;20509;-83
2022/06/24 09:52:46;;;;;;;10.97;7.73;;;30.30;76.90;;;;;;5089005;28;20441;-83
2022/06/24 09:55:13;;;;;;;10.27;8.47;;;30.30;77.20;;;;;;5080082;28;20520;-82
2022/06/24 09:57:41;;;;;;;8.70;7.80;;;30.30;78.00;;;;;;5076621;28;20819;-83
2022/06/24 10:02:54;;;;;;;9.47;8.47;;;30.20;79.50;;;;;;5067163;28;20501;-83
2022/06/24 10:05:27;;;;;;;8.37;7.53;;;30.00;80.40;;;;;;5082709;28;20539;-83
2022/06/24 10:07:57;;;;;;;8.90;7.50;;;29.90;80.20;;;;;;5093014;28;20448;-83
2022/06/24 10:10:26;;;;;;;7.10;6.30;;;29.70;81.00;;;;;;5087011;28;20477;-84
2022/06/24 10:13:00;;;;;;;14.20;6.27;;;29.70;81.10;;;;;;5074393;28;20462;-83
2022/06/24 10:15:32;;;;;;;6.73;5.37;;;29.60;79.40;;;;;;5074676;28;20503;-86
2022/06/24 10:18:00;;;;;;;5.77;5.27;;;29.00;80.80;;;;;;5076665;28;20469;-83
2022/06/24 10:20:29;;;;;;;10.60;5.03;;;28.90;81.80;;;;;;5088758;28;20479;-82
2022/06/24 10:22:57;;;;;;;5.87;4.50;;;28.50;81.60;;;;;;5078159;28;20438;-82
2022/06/24 10:25:52;;;;;;;8.60;5.30;;;28.40;82.20;;;;;;5079528;28;20442;-81
2022/06/24 10:28:18;;;;;;;6.50;5.33;;;28.30;83.00;;;;;;5078907;28;20472;-82
2022/06/24 10:30:57;;;;;;;5.13;4.63;;;28.30;83.20;;;;;;5086011;28;20480;-83
2022/06/24 10:33:28;;;;;;;6.20;4.83;;;28.40;83.50;;;;;;5090153;28;20464;-82
2022/06/24 10:35:58;;;;;;;6.10;5.50;;;28.60;83.40;;;;;;5085568;28;20446;-82
2022/06/24 10:38:27;;;;;;;6.23;5.03;;;28.50;84.00;;;;;;5096850;28;20455;-82
2022/06/24 10:40:55;;;;;;;5.67;4.87;;;28.60;84.20;;;;;;5092280;28;20858;-81
2022/06/24 10:43:39;;;;;;;6.10;5.60;;;28.90;83.80;;;;;;5091857;28;20425;-81
2022/06/24 10:46:22;;;;;;;7.10;6.23;;;29.30;82.90;;;;;;5084416;28;20434;-84
2022/06/24 10:49:01;;;;;;;8.40;6.93;;;29.70;81.20;;;;;;5101347;28;20507;-83
2022/06/24 10:51:34;;;;;;;8.07;6.20;;;30.20;80.30;;;;;;5098499;28;20498;-81
2022/06/24 10:54:14;;;;;;;7.00;6.10;;;30.30;80.20;;;;;;5085221;28;20470;-83
2022/06/24 10:56:46;;;;;;;9.93;7.60;;;30.40;80.70;;;;;;5085903;28;20464;-82
2022/06/24 10:59:17;;;;;;;8.37;6.57;;;30.20;79.40;;;;;;5072474;28;20450;-80
2022/06/24 11:01:46;;;;;;;7.80;7.10;;;30.10;80.40;;;;;;5086986;28;20535;-82
2022/06/24 11:04:16;;;;;;;12.37;8.10;;;29.60;81.50;;;;;;5097306;28;20429;-82
2022/06/24 11:07:08;;;;;;;8.00;7.10;;;29.10;83.50;;;;;;5085756;28;20445;-81
2022/06/24 11:09:36;;;;;;;13.27;9.63;;;28.60;85.10;;;;;;5084335;28;20448;-84
2022/06/24 11:12:03;;;;;;;8.17;7.27;;;28.30;86.90;;;;;;5082354;28;20460;-83
2022/06/24 11:14:30;;;;;;;8.43;7.20;;;28.20;87.80;;;;;;5097354;28;20452;-83
2022/06/24 11:16:57;;;;;;;9.27;5.20;;;28.30;87.10;;;;;;5082567;28;20484;-83
2022/06/24 11:19:24;;;;;;;7.80;5.57;;;28.30;86.80;;;;;;5075422;28;20476;-83
2022/06/24 11:21:51;;;;;;;7.57;4.37;;;28.50;85.60;;;;;;5086558;28;20496;-83
2022/06/24 11:24:21;;;;;;;8.83;3.67;;;28.80;84.90;;;;;;5094527;28;20484;-85
2022/06/24 11:27:04;;;;;;;5.13;3.67;;;28.70;84.30;;;;;;5085867;28;20887;-82
2022/06/24 11:29:48;;;;;;;7.17;4.17;;;29.10;84.10;;;;;;5074617;28;20506;-84
2022/06/24 11:32:16;;;;;;;4.40;3.77;;;29.10;82.90;;;;;;5076065;28;20525;-83
2022/06/24 11:34:44;;;;;;;3.57;3.27;;;29.50;82.60;;;;;;5085239;28;21222;-83
2022/06/24 11:37:11;;;;;;;2.70;2.03;;;29.40;82.60;;;;;;5085573;28;20529;-82
2022/06/24 11:39:40;;;;;;;4.80;2.30;;;29.20;81.30;;;;;;5088010;28;20457;-82
2022/06/24 11:42:07;;;;;;;4.47;2.17;;;28.70;82.30;;;;;;5081784;28;20535;-81
2022/06/24 11:44:35;;;;;;;2.30;2.00;;;28.30;82.80;;;;;;5087695;28;20441;-84
2022/06/24 11:47:03;;;;;;;2.43;1.87;;;28.10;83.00;;;;;;5082549;28;20430;-83
2022/06/24 11:49:32;;;;;;;6.27;2.27;;;28.00;84.80;;;;;;5082709;28;20508;-83
2022/06/24 11:51:59;;;;;;;3.83;2.20;;;28.20;85.10;;;;;;5076188;28;20490;-83
2022/06/24 11:54:27;;;;;;;2.80;1.63;;;28.50;84.10;;;;;;5094234;28;20525;-83
2022/06/24 11:56:56;;;;;;;4.17;2.30;;;28.60;84.30;;;;;;5072902;28;20446;-83
2022/06/24 11:59:24;;;;;;;4.10;2.30;;;28.40;84.20;;;;;;5096319;28;21546;-81
2022/06/24 12:01:52;;;;;;;2.63;1.80;;;28.20;84.70;;;;;;5069100;28;20526;-83
2022/06/24 12:04:23;;;;;;;5.23;1.77;;;27.90;85.80;;;;;;5076856;28;20435;-82
2022/06/24 12:06:53;;;;;;;3.20;1.93;;;27.60;87.20;;;;;;5071756;28;20452;-81
2022/06/24 12:09:20;;;;;;;3.23;2.30;;;27.30;88.90;;;;;;5078730;28;20521;-82
2022/06/24 12:11:48;;;;;;;4.80;2.80;;;26.90;90.10;;;;;;5071538;28;20572;-83
2022/06/24 12:14:18;;;;;;;4.20;2.10;;;26.70;90.80;;;;;;5077759;28;20504;-84
2022/06/24 12:16:59;;;;;;;4.03;1.40;;;26.50;91.30;;;;;;5073651;28;20503;-81
2022/06/24 12:19:27;;;;;;;4.20;1.50;;;26.70;91.40;;;;;;5068827;28;20517;-82
2022/06/24 12:22:07;;;;;;;1.60;1.30;;;27.00;90.70;;;;;;5078630;28;20581;-83
2022/06/24 12:24:34;;;;;;;4.63;1.97;;;27.10;90.10;;;;;;5073794;28;20437;-81
2022/06/24 12:27:03;;;;;;;3.83;2.10;;;27.30;89.80;;;;;;5083239;28;20512;-82
2022/06/24 12:29:34;;;;;;;4.13;1.37;;;27.60;89.70;;;;;;5085160;28;20440;-82
2022/06/24 12:32:02;;;;;;;3.77;1.80;;;27.70;88.70;;;;;;5075319;28;20513;-81
2022/06/24 12:34:31;;;;;;;4.03;1.70;;;27.80;88.50;;;;;;5076461;28;20473;-82
2022/06/24 12:37:00;;;;;;;2.17;1.40;;;27.50;89.10;;;;;;5092308;28;20514;-82
2022/06/24 12:39:31;;;;;;;3.77;1.80;;;27.40;90.10;;;;;;5071765;28;20448;-82
2022/06/24 12:41:59;;;;;;;2.90;1.80;;;27.40;90.70;;;;;;5066525;28;20526;-82
2022/06/24 12:44:30;;;;;;;3.80;2.20;;;27.70;90.70;;;;;;5078881;28;20513;-83
2022/06/24 12:52:37;;;;;;;2.83;1.90;;;28.00;88.10;;;;;;5091014;28;20448;-82
2022/06/24 12:55:07;;;;;;;2.90;1.60;;;28.10;87.50;;;;;;5096785;28;20445;-83
2022/06/24 12:57:34;;;;;;;9.33;2.27;;;28.10;87.40;;;;;;5082354;28;20500;-83
2022/06/24 13:00:03;;;;;;;8.00;3.03;;;28.10;88.10;;;;;;5092738;28;20601;-83
2022/06/24 13:02:32;;;;;;;5.37;3.13;;;28.40;87.50;;;;;;5079754;28;20460;-83
2022/06/24 13:04:58;;;;;;;4.70;2.33;;;28.70;86.60;;;;;;5090918;28;20437;-84
2022/06/24 13:07:25;;;;;;;3.53;1.83;;;28.90;85.80;;;;;;5075928;28;20457;-84
2022/06/24 13:09:52;;;;;;;3.10;1.80;;;28.90;84.90;;;;;;5076767;28;20945;-82